createdAt,value
2018-09-21T00:00:53.140Z,18.40
2018-09-21T00:03:21.911Z,14.20
2018-09-21T00:05:50.593Z,11.83
2018-09-21T00:08:20.090Z,9.75
2018-09-21T00:10:49.091Z,9.33
2018-09-21T00:13:18.047Z,9.70
2018-09-21T00:15:46.497Z,8.30
2018-09-21T00:18:15.451Z,9.03
2018-09-21T00:20:45.093Z,8.65
2018-09-21T00:23:13.989Z,7.00
2018-09-21T00:25:42.615Z,8.23
2018-09-21T00:28:11.765Z,7.03
2018-09-21T00:30:40.519Z,7.35
2018-09-21T00:33:09.032Z,6.97
2018-09-21T00:35:37.853Z,7.90
2018-09-21T00:38:06.895Z,8.75
2018-09-21T00:40:35.809Z,9.23
2018-09-21T00:43:09.956Z,7.43
2018-09-21T00:45:39.257Z,7.20
2018-09-21T00:48:08.382Z,7.00
2018-09-21T00:50:37.371Z,7.00
2018-09-21T00:53:06.487Z,8.90
2018-09-21T00:55:35.023Z,7.03
2018-09-21T00:58:04.005Z,6.65
2018-09-21T01:00:32.937Z,7.10
2018-09-21T01:03:01.529Z,7.53
2018-09-21T01:05:30.313Z,8.58
2018-09-21T01:07:59.432Z,7.65
2018-09-21T01:10:28.091Z,7.35
2018-09-21T01:12:57.143Z,7.20
2018-09-21T01:15:27.209Z,7.58
2018-09-21T01:17:56.038Z,7.58
2018-09-21T01:20:25.711Z,8.33
2018-09-21T01:22:55.343Z,8.95
2018-09-21T01:25:24.379Z,7.58
2018-09-21T01:27:53.255Z,7.37
2018-09-21T01:30:21.974Z,7.12
2018-09-21T01:32:51.103Z,9.17
2018-09-21T01:35:20.023Z,7.20
2018-09-21T01:37:49.166Z,7.58
2018-09-21T01:40:18.011Z,7.05
2018-09-21T01:42:46.992Z,7.65
2018-09-21T01:45:16.197Z,7.45
2018-09-21T01:47:44.911Z,6.60
2018-09-21T01:50:13.968Z,7.03
2018-09-21T01:52:43.034Z,7.22
2018-09-21T01:55:11.974Z,8.00
2018-09-21T01:57:40.811Z,7.40
2018-09-21T02:00:09.838Z,9.43
2018-09-21T02:02:38.928Z,7.55
2018-09-21T02:05:07.776Z,7.40
2018-09-21T02:07:36.922Z,8.03
2018-09-21T02:10:05.717Z,7.13
2018-09-21T02:12:34.831Z,8.13
2018-09-21T02:15:03.531Z,7.10
2018-09-21T02:17:32.530Z,9.05
2018-09-21T02:20:01.384Z,7.63
2018-09-21T02:22:30.290Z,7.40
2018-09-21T02:24:59.046Z,7.55
2018-09-21T02:27:27.767Z,7.53
2018-09-21T02:29:56.605Z,7.22
2018-09-21T02:32:25.011Z,7.08
2018-09-21T02:34:53.822Z,7.00
2018-09-21T02:37:22.429Z,6.87
2018-09-21T02:39:51.222Z,6.40
2018-09-21T02:42:20.027Z,7.37
2018-09-21T02:44:48.486Z,6.15
2018-09-21T02:47:17.847Z,8.10
2018-09-21T02:49:46.579Z,6.17
2018-09-21T02:52:15.736Z,6.20
2018-09-21T02:54:45.606Z,9.30
2018-09-21T02:57:14.377Z,6.70
2018-09-21T02:59:43.230Z,6.97
2018-09-21T03:02:11.600Z,6.17
2018-09-21T03:04:45.247Z,5.95
2018-09-21T03:07:14.215Z,6.67
2018-09-21T03:09:42.862Z,6.47
2018-09-21T03:12:11.381Z,6.00
2018-09-21T03:14:40.045Z,6.55
2018-09-21T03:17:08.628Z,6.25
2018-09-21T03:19:37.099Z,6.42
2018-09-21T03:22:05.818Z,6.22
2018-09-21T03:24:39.303Z,6.10
2018-09-21T03:27:08.358Z,6.17
2018-09-21T03:29:36.915Z,6.22
2018-09-21T03:32:05.453Z,6.33
2018-09-21T03:34:33.959Z,7.55
2018-09-21T03:37:04.686Z,7.08
2018-09-21T03:39:33.697Z,6.40
2018-09-21T03:42:02.864Z,7.45
2018-09-21T03:44:31.707Z,6.35
2018-09-21T03:47:01.213Z,6.17
2018-09-21T03:49:30.459Z,7.70
2018-09-21T03:51:59.385Z,6.80
2018-09-21T03:54:28.443Z,6.25
2018-09-21T03:56:57.457Z,7.05
2018-09-21T03:59:26.415Z,6.33
2018-09-21T04:01:54.931Z,10.93
2018-09-21T04:04:23.680Z,7.35
2018-09-21T04:06:52.120Z,6.62
2018-09-21T04:09:20.644Z,6.92
2018-09-21T04:11:49.268Z,7.25
2018-09-21T04:14:18.182Z,6.40
2018-09-21T04:16:47.047Z,6.20
2018-09-21T04:19:15.596Z,7.72
2018-09-21T04:21:44.714Z,7.12
2018-09-21T04:24:13.651Z,6.83
2018-09-21T04:26:42.299Z,6.12
2018-09-21T04:29:11.685Z,6.72
2018-09-21T04:31:40.520Z,8.80
2018-09-21T04:34:09.076Z,7.03
2018-09-21T04:36:37.527Z,6.22
2018-09-21T04:39:08.966Z,6.30
2018-09-21T04:41:38.152Z,6.47
2018-09-21T04:44:07.059Z,6.00
2018-09-21T04:46:35.546Z,6.20
2018-09-21T04:49:04.199Z,6.50
2018-09-21T04:51:32.896Z,7.33
2018-09-21T04:54:01.518Z,6.10
2018-09-21T04:56:30.087Z,6.03
2018-09-21T04:58:59.292Z,8.05
2018-09-21T05:01:28.146Z,8.40
2018-09-21T05:03:56.815Z,10.05
2018-09-21T05:06:25.464Z,7.28
2018-09-21T05:08:54.462Z,7.40
2018-09-21T05:11:23.119Z,6.87
2018-09-21T05:13:52.463Z,6.85
2018-09-21T05:16:21.000Z,7.83
2018-09-21T05:18:49.547Z,7.50
2018-09-21T05:21:18.242Z,8.35
2018-09-21T05:23:46.968Z,8.03
2018-09-21T05:26:15.964Z,6.90
2018-09-21T05:28:44.738Z,7.20
2018-09-21T05:31:13.330Z,7.90
2018-09-21T05:33:41.970Z,9.20
2018-09-21T05:36:11.696Z,7.63
2018-09-21T05:38:40.845Z,8.18
2018-09-21T05:41:09.466Z,9.48
2018-09-21T05:43:38.099Z,7.65
2018-09-21T05:46:06.964Z,9.37
2018-09-21T05:48:35.611Z,8.55
2018-09-21T05:51:04.454Z,8.38
2018-09-21T05:53:33.594Z,8.68
2018-09-21T05:56:02.096Z,8.37
2018-09-21T05:58:30.891Z,9.90
2018-09-21T06:00:59.802Z,9.65
2018-09-21T06:03:28.363Z,7.12
2018-09-21T06:05:57.109Z,7.05
2018-09-21T06:08:40.511Z,9.37
2018-09-21T06:11:09.070Z,7.37
2018-09-21T06:13:39.040Z,7.85
2018-09-21T06:16:08.003Z,8.83
2018-09-21T06:18:36.594Z,10.70
2018-09-21T06:21:06.749Z,9.18
2018-09-21T06:23:35.387Z,8.48
2018-09-21T06:26:04.018Z,6.50
2018-09-21T06:28:32.938Z,7.60
2018-09-21T06:31:01.732Z,6.55
2018-09-21T06:33:30.608Z,6.40
2018-09-21T06:35:59.097Z,8.00
2018-09-21T06:38:28.093Z,9.60
2018-09-21T06:40:57.047Z,7.08
2018-09-21T06:43:25.846Z,8.78
2018-09-21T06:45:54.400Z,6.27
2018-09-21T06:48:23.908Z,6.63
2018-09-21T06:50:52.852Z,6.62
2018-09-21T06:53:21.444Z,7.17
2018-09-21T06:55:50.390Z,9.60
2018-09-21T06:58:21.262Z,6.58
2018-09-21T07:00:50.306Z,7.35
2018-09-21T07:03:19.102Z,8.40
2018-09-21T07:05:48.144Z,7.10
2018-09-21T07:08:16.726Z,6.55
2018-09-21T07:10:45.412Z,10.10
2018-09-21T07:13:14.018Z,8.10
2018-09-21T07:15:42.844Z,7.43
2018-09-21T07:18:11.965Z,6.65
2018-09-21T07:20:41.006Z,9.55
2018-09-21T07:23:12.291Z,7.97
2018-09-21T07:25:41.388Z,6.80
2018-09-21T07:28:10.480Z,7.37
2018-09-21T07:30:39.330Z,8.80
2018-09-21T07:33:08.141Z,6.50
2018-09-21T07:35:36.706Z,8.28
2018-09-21T07:38:05.755Z,8.73
2018-09-21T07:40:34.958Z,7.50
2018-09-21T07:43:03.881Z,6.33
2018-09-21T07:45:32.675Z,7.53
2018-09-21T07:48:01.504Z,8.00
2018-09-21T07:50:30.551Z,7.53
2018-09-21T07:52:59.449Z,7.60
2018-09-21T07:55:28.542Z,9.45
2018-09-21T07:57:57.397Z,7.72
2018-09-21T08:00:26.263Z,7.10
2018-09-21T08:02:55.047Z,6.50
2018-09-21T08:05:28.803Z,8.43
2018-09-21T08:08:00.260Z,8.50
2018-09-21T08:10:29.228Z,6.55
2018-09-21T08:12:58.190Z,7.50
2018-09-21T08:15:27.114Z,14.55
2018-09-21T08:17:56.152Z,9.13
2018-09-21T08:20:25.167Z,8.35
2018-09-21T08:22:53.682Z,7.97
2018-09-21T08:25:23.883Z,7.20
2018-09-21T08:27:52.758Z,7.62
2018-09-21T08:30:21.231Z,9.33
2018-09-21T08:32:50.477Z,8.33
2018-09-21T08:35:20.850Z,8.38
2018-09-21T08:37:49.539Z,8.25
2018-09-21T08:40:20.241Z,6.10
2018-09-21T08:42:48.924Z,8.18
2018-09-21T08:45:17.424Z,7.17
2018-09-21T08:47:46.377Z,7.45
2018-09-21T08:52:58.370Z,9.48
2018-09-21T08:58:08.868Z,6.92
2018-09-21T09:00:38.831Z,9.00
2018-09-21T09:03:08.151Z,7.08
2018-09-21T09:05:36.827Z,8.88
2018-09-21T09:08:05.535Z,6.30
2018-09-21T09:10:34.428Z,8.93
2018-09-21T09:13:02.981Z,6.15
2018-09-21T09:15:31.766Z,5.97
2018-09-21T09:18:15.148Z,6.92
2018-09-21T09:20:43.684Z,10.08
2018-09-21T09:23:12.814Z,8.15
2018-09-21T09:25:42.098Z,8.00
2018-09-21T09:28:10.695Z,5.80
2018-09-21T09:30:39.831Z,6.65
2018-09-21T09:33:09.108Z,7.45
2018-09-21T09:38:38.383Z,9.55
2018-09-21T09:41:07.775Z,7.10
2018-09-21T09:43:36.979Z,8.38
2018-09-21T09:46:05.764Z,9.10
2018-09-21T09:48:34.400Z,8.08
2018-09-21T09:51:03.691Z,9.60
2018-09-21T09:53:32.870Z,5.22
2018-09-21T09:56:01.534Z,8.90
2018-09-21T09:58:32.421Z,6.65
2018-09-21T10:01:01.123Z,6.55
2018-09-21T10:03:30.540Z,7.75
2018-09-21T10:05:58.966Z,7.90
2018-09-21T10:08:27.894Z,5.12
2018-09-21T10:10:56.951Z,12.15
2018-09-21T10:16:23.305Z,6.62
2018-09-21T10:18:52.462Z,8.08
2018-09-21T10:21:21.264Z,5.62
2018-09-21T10:23:51.531Z,6.15
2018-09-21T10:26:30.660Z,11.00
2018-09-21T10:29:00.070Z,13.48
2018-09-21T10:31:28.698Z,11.78
2018-09-21T10:33:57.391Z,13.53
2018-09-21T10:36:27.212Z,13.32
2018-09-21T10:38:56.672Z,12.15
2018-09-21T10:41:25.547Z,9.50
2018-09-21T10:43:54.734Z,13.70
2018-09-21T10:46:24.136Z,10.98
2018-09-21T10:48:54.220Z,13.18
2018-09-21T10:51:22.791Z,16.62
2018-09-21T10:53:51.586Z,20.48
2018-09-21T10:56:20.848Z,18.90
2018-09-21T10:58:49.496Z,18.23
2018-09-21T11:01:18.754Z,21.60
2018-09-21T11:03:47.661Z,20.47
2018-09-21T11:06:16.430Z,15.78
2018-09-21T11:08:45.188Z,16.17
2018-09-21T11:11:13.658Z,21.47
2018-09-21T11:13:42.450Z,17.53
2018-09-21T11:16:11.209Z,22.62
2018-09-21T11:18:40.001Z,19.45
2018-09-21T11:21:08.697Z,14.63
2018-09-21T11:23:37.656Z,14.05
2018-09-21T11:26:06.216Z,8.78
2018-09-21T11:28:35.290Z,10.95
2018-09-21T11:31:04.295Z,11.35
2018-09-21T11:33:33.848Z,10.68
2018-09-21T11:36:02.459Z,11.70
2018-09-21T11:38:31.350Z,12.00
2018-09-21T11:41:00.151Z,11.57
2018-09-21T11:43:29.680Z,9.48
2018-09-21T11:45:58.519Z,13.20
2018-09-21T11:48:27.200Z,17.42
2018-09-21T11:50:55.967Z,9.03
2018-09-21T11:53:25.289Z,12.40
2018-09-21T11:55:54.076Z,13.18
2018-09-21T11:58:22.848Z,9.23
2018-09-21T12:00:51.499Z,8.30
2018-09-21T12:03:20.371Z,6.33
2018-09-21T12:05:49.982Z,15.25
2018-09-21T12:08:18.822Z,8.73
2018-09-21T12:10:47.254Z,11.12
2018-09-21T12:13:15.972Z,10.80
2018-09-21T12:15:44.806Z,7.80
2018-09-21T12:18:13.900Z,9.03
2018-09-21T12:20:42.788Z,11.18
2018-09-21T12:23:11.645Z,14.13
2018-09-21T12:25:40.834Z,8.65
2018-09-21T12:28:09.591Z,8.78
2018-09-21T12:30:38.760Z,8.80
2018-09-21T12:33:08.644Z,12.73
2018-09-21T12:35:37.991Z,7.72
2018-09-21T12:38:06.795Z,9.73
2018-09-21T12:40:36.051Z,10.03
2018-09-21T12:43:09.943Z,12.13
2018-09-21T12:45:39.627Z,10.50
2018-09-21T12:48:08.534Z,7.90
2018-09-21T12:50:39.161Z,10.93
2018-09-21T12:53:08.013Z,7.95
2018-09-21T12:55:38.920Z,10.60
2018-09-21T12:58:08.028Z,8.43
2018-09-21T13:00:41.698Z,12.07
2018-09-21T13:03:10.535Z,8.48
2018-09-21T13:05:43.599Z,9.93
2018-09-21T13:08:12.693Z,7.60
2018-09-21T13:10:41.276Z,12.28
2018-09-21T13:13:10.146Z,9.60
2018-09-21T13:15:38.998Z,8.35
2018-09-21T13:18:08.025Z,11.20
2018-09-21T13:20:36.878Z,8.30
2018-09-21T13:23:05.762Z,7.65
2018-09-21T13:25:34.607Z,9.48
2018-09-21T13:28:03.553Z,9.23
2018-09-21T13:30:32.436Z,11.05
2018-09-21T13:33:01.383Z,13.60
2018-09-21T13:35:29.934Z,10.55
2018-09-21T13:37:58.868Z,7.97
2018-09-21T13:40:27.718Z,9.25
2018-09-21T13:42:56.436Z,9.98
2018-09-21T13:45:25.540Z,10.13
2018-09-21T13:47:54.995Z,7.85
2018-09-21T13:50:23.962Z,8.75
2018-09-21T13:52:53.008Z,10.53
2018-09-21T13:55:21.571Z,7.53
2018-09-21T13:57:51.382Z,8.85
2018-09-21T14:00:20.464Z,10.05
2018-09-21T14:02:48.993Z,13.20
2018-09-21T14:05:17.903Z,8.20
2018-09-21T14:07:46.708Z,6.17
2018-09-21T14:10:15.940Z,10.08
2018-09-21T14:12:44.836Z,13.08
2018-09-21T14:15:28.248Z,12.58
2018-09-21T14:17:58.371Z,12.13
2018-09-21T14:20:28.351Z,7.65
2018-09-21T14:22:57.034Z,15.30
2018-09-21T14:25:26.666Z,9.85
2018-09-21T14:27:55.328Z,10.30
2018-09-21T14:30:24.422Z,7.72
2018-09-21T14:32:55.370Z,9.73
2018-09-21T14:35:24.734Z,10.32
2018-09-21T14:37:53.538Z,7.65
2018-09-21T14:40:22.770Z,4.75
2018-09-21T14:42:52.064Z,5.60
2018-09-21T14:45:21.055Z,10.90
2018-09-21T14:47:49.545Z,9.50
2018-09-21T14:50:18.404Z,6.42
2018-09-21T14:52:46.864Z,4.40
2018-09-21T14:55:17.382Z,7.70
2018-09-21T14:57:46.308Z,6.60
2018-09-21T15:00:14.891Z,9.38
2018-09-21T15:02:43.740Z,31.52
2018-09-21T15:05:12.792Z,29.50
2018-09-21T15:07:41.828Z,26.20
2018-09-21T15:10:12.498Z,29.10
2018-09-21T15:12:42.602Z,24.00
2018-09-21T15:15:11.843Z,13.27
2018-09-21T15:17:41.043Z,16.02
2018-09-21T15:20:11.910Z,9.35
2018-09-21T15:22:41.126Z,12.73
2018-09-21T15:25:09.392Z,9.37
2018-09-21T15:27:38.140Z,15.13
2018-09-21T15:30:07.462Z,14.23
2018-09-21T15:32:36.486Z,14.55
2018-09-21T15:35:05.112Z,17.17
2018-09-21T15:37:34.092Z,10.80
2018-09-21T15:40:03.627Z,10.67
2018-09-21T15:42:32.300Z,10.28
2018-09-21T15:45:02.376Z,12.75
2018-09-21T15:47:31.495Z,11.40
2018-09-21T15:50:00.056Z,6.00
2018-09-21T15:52:28.576Z,8.18
2018-09-21T15:54:57.604Z,7.97
2018-09-21T15:57:26.618Z,10.05
2018-09-21T15:59:55.431Z,7.67
2018-09-21T16:02:23.874Z,8.13
2018-09-21T16:04:52.628Z,4.60
2018-09-21T16:07:21.416Z,3.62
2018-09-21T16:09:50.233Z,3.93
2018-09-21T16:12:19.310Z,3.65
2018-09-21T16:14:48.462Z,3.98
2018-09-21T16:17:17.177Z,4.00
2018-09-21T16:19:46.209Z,3.05
2018-09-21T16:29:39.192Z,3.22
2018-09-21T16:32:07.757Z,3.47
2018-09-21T16:34:36.765Z,3.72
2018-09-21T16:37:05.894Z,4.40
2018-09-21T16:39:35.350Z,2.93
2018-09-21T16:42:04.527Z,4.60
2018-09-21T16:44:33.177Z,3.47
2018-09-21T16:47:01.926Z,3.75
2018-09-21T16:49:30.690Z,2.30
2018-09-21T16:51:59.752Z,4.35
2018-09-21T16:54:28.602Z,3.83
2018-09-21T16:56:57.371Z,4.17
2018-09-21T16:59:26.726Z,3.67
2018-09-21T17:01:55.748Z,4.00
2018-09-21T17:04:24.373Z,3.17
2018-09-21T17:06:52.817Z,3.40
2018-09-21T17:09:21.730Z,4.50
2018-09-21T17:11:50.428Z,4.83
2018-09-21T17:14:19.051Z,3.92
2018-09-21T17:16:48.080Z,4.07
2018-09-21T17:19:16.929Z,4.72
2018-09-21T17:21:45.872Z,4.20
2018-09-21T17:24:14.773Z,4.22
2018-09-21T17:26:43.521Z,4.33
2018-09-21T17:29:12.846Z,4.53
2018-09-21T17:31:42.060Z,4.03
2018-09-21T17:34:10.644Z,4.35
2018-09-21T17:36:39.280Z,3.72
2018-09-21T17:39:10.155Z,5.23
2018-09-21T17:41:38.798Z,4.05
2018-09-21T17:44:07.381Z,4.77
2018-09-21T17:46:35.988Z,4.78
2018-09-21T17:49:04.687Z,3.80
2018-09-21T17:51:34.005Z,4.67
2018-09-21T17:54:02.975Z,5.50
2018-09-21T17:56:31.553Z,5.05
2018-09-21T17:59:00.079Z,5.60
2018-09-21T18:01:28.699Z,4.95
2018-09-21T18:04:04.675Z,5.30
2018-09-21T18:06:33.433Z,6.50
2018-09-21T18:09:02.393Z,5.10
2018-09-21T18:11:31.353Z,4.70
2018-09-21T18:14:00.239Z,5.12
2018-09-21T18:16:29.099Z,7.65
2018-09-21T18:18:57.924Z,4.12
2018-09-21T18:21:27.034Z,5.03
2018-09-21T18:23:55.866Z,6.30
2018-09-21T18:26:24.734Z,7.87
2018-09-21T18:28:53.774Z,3.47
2018-09-21T18:31:23.042Z,5.55
2018-09-21T18:33:52.104Z,3.22
2018-09-21T18:36:21.182Z,5.05
2018-09-21T18:38:49.926Z,4.83
2018-09-21T18:41:18.830Z,4.33
2018-09-21T18:43:47.672Z,3.42
2018-09-21T18:46:16.222Z,5.22
2018-09-21T18:48:44.968Z,3.92
2018-09-21T18:51:13.615Z,5.53
2018-09-21T18:53:42.393Z,5.28
2018-09-21T18:56:12.011Z,3.87
2018-09-21T18:58:41.518Z,4.30
2018-09-21T19:01:10.103Z,4.58
2018-09-21T19:03:39.065Z,4.85
2018-09-21T19:06:07.885Z,6.78
2018-09-21T19:08:36.860Z,4.65
2018-09-21T19:11:05.453Z,3.62
2018-09-21T19:13:34.036Z,4.15
2018-09-21T19:16:02.724Z,2.60
2018-09-21T19:18:31.294Z,4.80
2018-09-21T19:21:00.437Z,4.20
2018-09-21T19:23:29.143Z,4.60
2018-09-21T19:25:57.835Z,3.37
2018-09-21T19:28:26.823Z,6.00
2018-09-21T19:30:55.524Z,4.45
2018-09-21T19:33:24.656Z,5.47
2018-09-21T19:35:53.615Z,6.30
2018-09-21T19:38:22.721Z,4.92
2018-09-21T19:40:51.426Z,4.53
2018-09-21T19:43:20.101Z,5.40
2018-09-21T19:45:48.890Z,4.08
2018-09-21T19:48:18.142Z,4.75
2018-09-21T19:50:46.878Z,4.40
2018-09-21T19:53:15.582Z,5.37
2018-09-21T19:55:44.306Z,4.25
2018-09-21T19:58:12.953Z,5.85
2018-09-21T20:00:41.734Z,3.90
2018-09-21T20:03:10.508Z,4.25
2018-09-21T20:05:39.219Z,4.85
2018-09-21T20:08:07.892Z,6.75
2018-09-21T20:10:36.487Z,5.47
2018-09-21T20:13:05.261Z,3.95
2018-09-21T20:15:33.895Z,6.28
2018-09-21T20:18:02.612Z,5.45
2018-09-21T20:20:31.397Z,4.33
2018-09-21T20:23:14.703Z,7.45
2018-09-21T20:25:43.309Z,6.30
2018-09-21T20:28:12.001Z,4.23
2018-09-21T20:31:49.486Z,7.05
2018-09-21T20:34:18.283Z,5.95
2018-09-21T20:36:46.969Z,4.80
2018-09-21T20:39:15.534Z,6.72
2018-09-21T20:41:44.204Z,6.08
2018-09-21T20:44:17.999Z,4.92
2018-09-21T20:46:47.720Z,5.60
2018-09-21T20:49:16.647Z,5.30
2018-09-21T20:51:45.846Z,5.25
2018-09-21T20:54:15.176Z,7.03
2018-09-21T20:56:44.031Z,5.67
2018-09-21T20:59:13.322Z,7.42
2018-09-21T21:01:41.931Z,5.92
2018-09-21T21:04:10.737Z,6.70
2018-09-21T21:06:39.824Z,6.53
2018-09-21T21:09:09.658Z,4.72
2018-09-21T21:11:38.582Z,6.62
2018-09-21T21:14:07.371Z,6.83
2018-09-21T21:16:36.869Z,5.27
2018-09-21T21:19:06.211Z,6.03
2018-09-21T21:21:35.329Z,7.50
2018-09-21T21:24:04.325Z,4.85
2018-09-21T21:26:32.968Z,6.47
2018-09-21T21:29:01.557Z,5.08
2018-09-21T21:31:30.006Z,5.50
2018-09-21T21:33:58.591Z,6.83
2018-09-21T21:36:27.341Z,4.67
2018-09-21T21:38:55.920Z,6.83
2018-09-21T21:41:24.631Z,5.22
2018-09-21T21:43:53.272Z,5.03
2018-09-21T21:46:22.965Z,5.30
2018-09-21T21:48:51.588Z,6.20
2018-09-21T21:51:20.136Z,5.63
2018-09-21T21:53:48.597Z,4.08
2018-09-21T21:56:17.100Z,5.87
2018-09-21T21:58:45.600Z,4.83
2018-09-21T22:01:19.366Z,4.83
2018-09-21T22:03:48.039Z,5.55
2018-09-21T22:06:16.529Z,4.58
2018-09-21T22:08:45.219Z,5.03
2018-09-21T22:11:18.792Z,5.97
2018-09-21T22:13:52.554Z,5.40
2018-09-21T22:16:21.078Z,4.72
2018-09-21T22:18:49.830Z,6.13
2018-09-21T22:21:18.267Z,3.95
2018-09-21T22:23:47.016Z,6.47
2018-09-21T22:26:15.574Z,4.50
2018-09-21T22:28:44.055Z,5.17
2018-09-21T22:31:13.218Z,5.07
2018-09-21T22:33:43.370Z,4.67
2018-09-21T22:36:12.207Z,4.90
2018-09-21T22:38:41.568Z,5.15
2018-09-21T22:41:10.581Z,5.10
2018-09-21T22:43:39.324Z,4.15
2018-09-21T22:46:08.055Z,3.37
2018-09-21T22:48:36.787Z,3.83
2018-09-21T22:51:05.912Z,5.00
2018-09-21T22:53:34.468Z,3.07
2018-09-21T22:56:03.008Z,4.87
2018-09-21T22:58:31.632Z,3.70
2018-09-21T23:01:00.256Z,4.00
2018-09-21T23:03:30.370Z,3.37
2018-09-21T23:06:00.944Z,4.55
2018-09-21T23:08:30.991Z,4.42
2018-09-21T23:10:59.588Z,3.95
2018-09-21T23:13:28.177Z,3.47
2018-09-21T23:15:56.782Z,2.33
2018-09-21T23:18:25.260Z,3.83
2018-09-21T23:20:53.830Z,5.80
2018-09-21T23:23:22.322Z,7.57
2018-09-21T23:25:51.276Z,4.67
2018-09-21T23:28:20.232Z,2.85
2018-09-21T23:30:48.756Z,3.85
2018-09-21T23:33:17.242Z,2.47
2018-09-21T23:35:45.872Z,3.27
2018-09-21T23:38:14.466Z,2.23
2018-09-21T23:40:42.988Z,3.63
2018-09-21T23:43:11.490Z,4.20
2018-09-21T23:45:40.066Z,2.43
2018-09-21T23:48:08.970Z,2.03
2018-09-21T23:50:37.950Z,3.00
2018-09-21T23:53:06.500Z,3.10
2018-09-21T23:55:35.359Z,5.23
2018-09-21T23:58:03.951Z,3.67
